createdAt,value
2023-03-17T00:00:26.389Z,7.63
2023-03-17T00:02:53.683Z,7.47
2023-03-17T00:05:27.575Z,6.53
2023-03-17T00:07:55.208Z,7.88
2023-03-17T00:10:26.576Z,7.25
2023-03-17T00:12:55.176Z,6.28
2023-03-17T00:15:22.954Z,6.43
2023-03-17T00:17:50.312Z,6.32
2023-03-17T00:20:22.648Z,8.13
2023-03-17T00:22:50.239Z,7.28
2023-03-17T00:25:18.679Z,7.45
2023-03-17T00:27:45.792Z,7.97
2023-03-17T00:30:13.121Z,7.57
2023-03-17T00:32:40.352Z,5.30
2023-03-17T00:35:27.741Z,7.07
2023-03-17T00:37:56.105Z,6.15
2023-03-17T00:40:29.557Z,7.55
2023-03-17T00:42:58.082Z,6.93
2023-03-17T00:45:27.019Z,7.30
2023-03-17T00:47:57.642Z,6.90
2023-03-17T00:50:26.292Z,7.93
2023-03-17T00:52:54.634Z,7.57
2023-03-17T00:55:22.288Z,6.53
2023-03-17T00:57:49.854Z,6.93
2023-03-17T01:00:17.748Z,6.13
2023-03-17T01:02:45.559Z,4.78
2023-03-17T01:05:13.314Z,5.47
2023-03-17T01:07:42.526Z,7.65
2023-03-17T01:10:15.785Z,8.30
2023-03-17T01:12:43.263Z,7.05
2023-03-17T01:15:12.875Z,5.43
2023-03-17T01:17:40.508Z,6.88
2023-03-17T01:20:08.710Z,8.32
2023-03-17T01:22:36.323Z,7.43
2023-03-17T01:25:04.889Z,7.13
2023-03-17T01:27:35.146Z,6.85
2023-03-17T01:30:02.298Z,6.63
2023-03-17T01:32:29.470Z,6.75
2023-03-17T01:34:56.947Z,6.97
2023-03-17T01:37:24.464Z,6.57
2023-03-17T01:39:52.605Z,7.55
2023-03-17T01:42:20.806Z,8.07
2023-03-17T01:45:35.294Z,7.28
2023-03-17T01:48:02.469Z,7.50
2023-03-17T01:50:30.588Z,7.72
2023-03-17T01:52:57.799Z,7.07
2023-03-17T01:55:25.033Z,8.48
2023-03-17T01:57:54.182Z,8.45
2023-03-17T02:00:23.438Z,6.82
2023-03-17T02:02:54.101Z,6.95
2023-03-17T02:05:22.907Z,7.38
2023-03-17T02:07:50.311Z,7.18
2023-03-17T02:10:19.404Z,6.53
2023-03-17T02:12:47.516Z,6.78
2023-03-17T02:15:15.332Z,6.93
2023-03-17T02:17:42.416Z,5.88
2023-03-17T02:20:19.864Z,7.78
2023-03-17T02:22:50.251Z,8.32
2023-03-17T02:25:17.574Z,8.15
2023-03-17T02:27:46.333Z,7.72
2023-03-17T02:30:14.719Z,6.30
2023-03-17T02:32:43.408Z,5.90
2023-03-17T02:35:10.620Z,6.53
2023-03-17T02:37:38.019Z,6.60
2023-03-17T02:40:06.079Z,6.18
2023-03-17T02:42:33.766Z,7.65
2023-03-17T02:45:01.123Z,9.85
2023-03-17T02:47:28.328Z,6.28
2023-03-17T02:49:55.646Z,6.15
2023-03-17T02:52:22.784Z,7.05
2023-03-17T02:54:50.159Z,7.10
2023-03-17T02:57:17.596Z,6.10
2023-03-17T02:59:44.724Z,5.40
2023-03-17T03:02:11.854Z,7.53
2023-03-17T03:04:39.068Z,5.85
2023-03-17T03:07:06.404Z,8.90
2023-03-17T03:09:33.597Z,6.13
2023-03-17T03:12:00.947Z,6.38
2023-03-17T03:14:28.089Z,6.78
2023-03-17T03:16:55.228Z,6.25
2023-03-17T03:19:22.809Z,6.55
2023-03-17T03:21:50.223Z,6.95
2023-03-17T03:24:17.424Z,6.18
2023-03-17T03:26:44.645Z,7.07
2023-03-17T03:29:11.720Z,8.05
2023-03-17T03:31:38.876Z,6.75
2023-03-17T03:34:06.291Z,6.28
2023-03-17T03:36:33.420Z,6.03
2023-03-17T03:39:01.141Z,6.22
2023-03-17T03:41:28.363Z,7.60
2023-03-17T03:43:55.561Z,6.93
2023-03-17T03:46:22.724Z,6.45
2023-03-17T03:48:49.906Z,4.82
2023-03-17T03:51:16.962Z,6.55
2023-03-17T03:53:44.096Z,4.78
2023-03-17T03:56:11.456Z,6.30
2023-03-17T03:58:38.595Z,6.68
2023-03-17T04:01:06.235Z,4.78
2023-03-17T04:03:33.577Z,6.35
2023-03-17T04:06:00.939Z,5.38
2023-03-17T04:08:28.086Z,6.72
2023-03-17T04:10:55.258Z,5.13
2023-03-17T04:13:22.910Z,5.22
2023-03-17T04:15:50.110Z,4.85
2023-03-17T04:18:17.213Z,6.72
2023-03-17T04:20:44.306Z,6.20
2023-03-17T04:23:11.915Z,6.57
2023-03-17T04:25:39.049Z,6.97
2023-03-17T04:28:06.387Z,5.60
2023-03-17T04:30:33.521Z,7.60
2023-03-17T04:33:00.979Z,7.65
2023-03-17T04:35:28.164Z,5.75
2023-03-17T04:37:55.447Z,7.00
2023-03-17T04:40:22.616Z,6.63
2023-03-17T04:42:49.757Z,5.35
2023-03-17T04:45:16.953Z,5.65
2023-03-17T04:47:46.001Z,5.82
2023-03-17T04:50:13.921Z,6.88
2023-03-17T04:52:41.381Z,7.57
2023-03-17T04:55:09.150Z,4.88
2023-03-17T04:57:36.956Z,6.10
2023-03-17T05:00:07.518Z,7.32
2023-03-17T05:02:35.212Z,5.80
2023-03-17T05:05:02.679Z,4.93
2023-03-17T05:07:30.900Z,5.95
2023-03-17T05:09:58.908Z,7.25
2023-03-17T05:12:26.022Z,4.78
2023-03-17T05:14:53.123Z,8.25
2023-03-17T05:17:20.623Z,6.88
2023-03-17T05:19:47.815Z,6.50
2023-03-17T05:22:15.002Z,7.57
2023-03-17T05:24:42.158Z,7.20
2023-03-17T05:27:09.374Z,6.13
2023-03-17T05:29:36.534Z,6.03
2023-03-17T05:32:03.733Z,6.38
2023-03-17T05:34:31.172Z,5.38
2023-03-17T05:36:58.392Z,5.75
2023-03-17T05:39:25.544Z,4.88
2023-03-17T05:41:53.202Z,9.82
2023-03-17T05:44:20.811Z,6.72
2023-03-17T05:46:47.889Z,6.47
2023-03-17T05:49:15.250Z,8.63
2023-03-17T05:51:42.563Z,9.00
2023-03-17T05:54:09.754Z,5.43
2023-03-17T05:56:36.925Z,5.15
2023-03-17T05:59:04.484Z,6.35
2023-03-17T06:01:31.662Z,6.10
2023-03-17T06:04:00.902Z,8.98
2023-03-17T06:06:28.796Z,8.82
2023-03-17T06:08:56.092Z,5.03
2023-03-17T06:11:23.206Z,5.15
2023-03-17T06:13:50.356Z,5.03
2023-03-17T06:16:17.538Z,8.48
2023-03-17T06:18:45.791Z,4.75
2023-03-17T06:21:13.585Z,7.90
2023-03-17T06:23:40.833Z,6.22
2023-03-17T06:26:07.981Z,6.05
2023-03-17T06:28:35.077Z,6.95
2023-03-17T06:31:02.651Z,7.95
2023-03-17T06:33:30.806Z,6.88
2023-03-17T06:35:58.764Z,6.07
2023-03-17T06:38:25.948Z,6.35
2023-03-17T06:40:53.075Z,5.43
2023-03-17T06:43:22.065Z,6.55
2023-03-17T06:45:49.235Z,4.57
2023-03-17T06:48:16.429Z,7.80
2023-03-17T06:50:43.568Z,5.93
2023-03-17T06:53:11.349Z,5.80
2023-03-17T06:55:38.455Z,5.57
2023-03-17T06:58:05.860Z,5.78
2023-03-17T07:00:32.917Z,4.82
2023-03-17T07:03:00.085Z,6.55
2023-03-17T07:05:27.875Z,6.30
2023-03-17T07:07:55.058Z,6.80
2023-03-17T07:10:23.089Z,5.22
2023-03-17T07:12:50.183Z,5.47
2023-03-17T07:15:18.812Z,7.70
2023-03-17T07:17:46.974Z,5.10
2023-03-17T07:20:14.185Z,4.72
2023-03-17T07:22:41.687Z,7.88
2023-03-17T07:25:09.747Z,3.42
2023-03-17T07:27:37.758Z,5.63
2023-03-17T07:30:05.760Z,8.82
2023-03-17T07:32:33.193Z,5.47
2023-03-17T07:35:00.429Z,5.68
2023-03-17T07:37:27.906Z,5.25
2023-03-17T07:39:54.990Z,5.05
2023-03-17T07:42:22.158Z,6.90
2023-03-17T07:44:49.330Z,9.40
2023-03-17T07:47:16.691Z,5.60
2023-03-17T07:49:44.028Z,6.15
2023-03-17T07:52:11.682Z,6.03
2023-03-17T07:54:41.550Z,5.93
2023-03-17T07:57:10.040Z,8.85
2023-03-17T07:59:38.181Z,8.00
2023-03-17T08:02:05.395Z,7.40
2023-03-17T08:04:32.503Z,7.50
2023-03-17T08:06:59.787Z,7.38
2023-03-17T08:09:27.053Z,7.95
2023-03-17T08:11:54.141Z,7.53
2023-03-17T08:14:21.289Z,5.25
2023-03-17T08:16:48.582Z,5.35
2023-03-17T08:19:16.294Z,5.22
2023-03-17T08:21:43.457Z,7.05
2023-03-17T08:24:11.020Z,7.97
2023-03-17T08:26:38.151Z,7.82
2023-03-17T08:29:05.336Z,6.07
2023-03-17T08:31:33.836Z,7.00
2023-03-17T08:34:02.600Z,4.25
2023-03-17T08:36:29.766Z,7.30
2023-03-17T08:38:56.950Z,6.47
2023-03-17T08:41:25.144Z,4.95
2023-03-17T08:43:52.385Z,6.60
2023-03-17T08:46:19.675Z,6.13
2023-03-17T08:48:48.185Z,4.82
2023-03-17T08:51:18.732Z,7.22
2023-03-17T08:53:47.094Z,8.40
2023-03-17T08:56:15.427Z,7.05
2023-03-17T08:58:43.171Z,5.78
2023-03-17T09:01:13.727Z,6.20
2023-03-17T09:03:41.017Z,8.23
2023-03-17T09:06:09.465Z,6.65
2023-03-17T09:08:39.919Z,6.95
2023-03-17T09:11:07.490Z,7.10
2023-03-17T09:13:35.571Z,6.57
2023-03-17T09:16:02.829Z,6.32
2023-03-17T09:18:32.898Z,8.70
2023-03-17T09:21:00.224Z,6.05
2023-03-17T09:23:27.479Z,7.95
2023-03-17T09:25:54.753Z,5.60
2023-03-17T09:28:21.841Z,7.32
2023-03-17T09:30:49.462Z,6.95
2023-03-17T09:33:17.639Z,7.38
2023-03-17T09:35:45.311Z,6.93
2023-03-17T09:38:12.802Z,10.38
2023-03-17T09:41:19.637Z,7.57
2023-03-17T09:43:57.341Z,8.23
2023-03-17T09:46:27.236Z,10.10
2023-03-17T09:49:03.765Z,10.85
2023-03-17T09:51:32.571Z,8.90
2023-03-17T09:54:02.261Z,9.48
2023-03-17T09:56:32.377Z,8.18
2023-03-17T09:59:08.591Z,8.77
2023-03-17T10:01:44.342Z,9.88
2023-03-17T10:04:12.019Z,7.80
2023-03-17T10:06:44.213Z,8.23
2023-03-17T10:09:30.995Z,7.88
2023-03-17T10:12:07.470Z,7.03
2023-03-17T10:14:57.258Z,11.05
2023-03-17T10:17:29.004Z,7.50
2023-03-17T10:19:59.760Z,6.20
2023-03-17T10:22:30.149Z,7.20
2023-03-17T10:25:03.875Z,6.28
2023-03-17T10:27:33.442Z,7.70
2023-03-17T10:30:00.840Z,8.48
2023-03-17T10:32:28.130Z,9.05
2023-03-17T10:34:55.745Z,8.52
2023-03-17T10:37:24.272Z,8.40
2023-03-17T10:39:52.702Z,7.88
2023-03-17T10:42:29.757Z,7.32
2023-03-17T10:44:58.384Z,9.07
2023-03-17T10:47:25.510Z,8.13
2023-03-17T10:49:53.333Z,7.90
2023-03-17T10:52:23.391Z,6.07
2023-03-17T10:54:54.526Z,10.90
2023-03-17T10:57:22.046Z,7.50
2023-03-17T10:59:53.833Z,6.70
2023-03-17T11:02:24.515Z,8.80
2023-03-17T11:04:54.532Z,7.38
2023-03-17T11:07:29.464Z,6.35
2023-03-17T11:09:59.087Z,7.75
2023-03-17T11:12:39.384Z,8.77
2023-03-17T11:15:08.510Z,9.52
2023-03-17T11:17:45.462Z,8.80
2023-03-17T11:20:28.029Z,7.38
2023-03-17T11:23:05.527Z,8.75
2023-03-17T11:25:34.508Z,9.50
2023-03-17T11:28:02.476Z,9.07
2023-03-17T11:30:33.912Z,9.80
2023-03-17T11:33:14.230Z,11.30
2023-03-17T11:36:18.600Z,11.70
2023-03-17T11:38:57.862Z,10.70
2023-03-17T11:41:41.633Z,9.38
2023-03-17T11:44:20.284Z,9.10
2023-03-17T11:46:48.963Z,10.60
2023-03-17T11:49:25.300Z,12.27
2023-03-17T11:51:56.786Z,8.57
2023-03-17T11:54:48.852Z,9.88
2023-03-17T11:57:20.867Z,8.95
2023-03-17T11:59:54.444Z,8.18
2023-03-17T12:02:21.529Z,8.95
2023-03-17T12:04:55.659Z,8.90
2023-03-17T12:07:28.672Z,9.30
2023-03-17T12:10:01.980Z,11.45
2023-03-17T12:12:31.230Z,8.27
2023-03-17T12:14:59.376Z,11.25
2023-03-17T12:17:37.298Z,12.02
2023-03-17T12:20:05.986Z,10.07
2023-03-17T12:22:39.150Z,9.70
2023-03-17T12:25:16.555Z,8.65
2023-03-17T12:27:48.141Z,8.32
2023-03-17T12:30:23.069Z,9.32
2023-03-17T12:33:01.492Z,11.18
2023-03-17T12:35:30.441Z,9.23
2023-03-17T12:38:00.121Z,11.13
2023-03-17T12:40:32.182Z,10.95
2023-03-17T12:43:18.351Z,9.95
2023-03-17T12:46:11.774Z,8.57
2023-03-17T12:48:42.163Z,7.80
2023-03-17T12:51:28.217Z,8.05
2023-03-17T12:53:55.779Z,8.90
2023-03-17T12:56:26.874Z,9.10
2023-03-17T12:58:54.886Z,10.18
2023-03-17T13:01:41.760Z,14.13
2023-03-17T13:04:27.670Z,9.38
2023-03-17T13:07:07.305Z,9.25
2023-03-17T13:09:39.317Z,6.70
2023-03-17T13:12:08.007Z,10.75
2023-03-17T13:14:48.053Z,9.65
2023-03-17T13:17:19.559Z,12.45
2023-03-17T13:20:08.342Z,8.57
2023-03-17T13:22:35.512Z,9.63
2023-03-17T13:25:13.493Z,12.65
2023-03-17T13:27:44.668Z,7.72
2023-03-17T13:30:26.150Z,7.20
2023-03-17T13:32:57.067Z,8.35
2023-03-17T13:35:41.982Z,9.52
2023-03-17T13:38:27.961Z,10.05
2023-03-17T13:41:20.535Z,11.15
2023-03-17T13:43:53.890Z,8.45
2023-03-17T13:46:21.208Z,11.48
2023-03-17T13:48:48.990Z,6.45
2023-03-17T13:51:19.258Z,6.32
2023-03-17T13:53:48.878Z,11.82
2023-03-17T13:56:19.587Z,7.97
2023-03-17T13:58:53.008Z,7.97
2023-03-17T14:01:21.582Z,7.38
2023-03-17T14:03:54.024Z,10.38
2023-03-17T14:06:23.010Z,7.93
2023-03-17T14:08:53.019Z,8.18
2023-03-17T14:11:23.826Z,8.73
2023-03-17T14:13:57.017Z,8.20
2023-03-17T14:16:27.174Z,8.90
2023-03-17T14:19:01.884Z,8.18
2023-03-17T14:21:33.311Z,9.65
2023-03-17T14:24:02.064Z,8.27
2023-03-17T14:26:30.742Z,8.88
2023-03-17T14:29:02.071Z,10.25
2023-03-17T14:31:29.890Z,8.85
2023-03-17T14:33:58.525Z,11.07
2023-03-17T14:36:26.952Z,7.32
2023-03-17T14:38:55.501Z,8.15
2023-03-17T14:41:24.113Z,10.95
2023-03-17T14:43:54.960Z,10.82
2023-03-17T14:46:22.157Z,8.07
2023-03-17T14:48:50.872Z,13.75
2023-03-17T14:51:18.002Z,10.65
2023-03-17T14:53:46.540Z,8.32
2023-03-17T14:56:14.098Z,9.57
2023-03-17T14:58:43.337Z,14.45
2023-03-17T15:01:17.145Z,10.88
2023-03-17T15:03:57.732Z,7.50
2023-03-17T15:06:26.447Z,7.25
2023-03-17T15:08:54.327Z,9.88
2023-03-17T15:11:21.430Z,8.27
2023-03-17T15:13:49.833Z,8.35
2023-03-17T15:16:23.173Z,8.45
2023-03-17T15:18:54.344Z,14.32
2023-03-17T15:21:23.086Z,8.18
2023-03-17T15:23:50.475Z,12.18
2023-03-17T15:26:21.942Z,11.35
2023-03-17T15:28:49.050Z,8.93
2023-03-17T15:31:16.479Z,6.85
2023-03-17T15:33:44.415Z,8.55
2023-03-17T15:36:25.609Z,8.93
2023-03-17T15:38:58.722Z,11.52
2023-03-17T15:41:25.973Z,8.40
2023-03-17T15:43:53.597Z,8.68
2023-03-17T15:46:27.609Z,8.60
2023-03-17T15:48:54.877Z,11.27
2023-03-17T15:51:22.121Z,11.73
2023-03-17T15:53:49.242Z,11.65
2023-03-17T15:56:18.855Z,10.88
2023-03-17T15:58:47.987Z,6.18
2023-03-17T16:01:16.529Z,7.88
2023-03-17T16:03:45.385Z,9.25
2023-03-17T16:06:15.510Z,8.68
2023-03-17T16:08:42.613Z,8.07
2023-03-17T16:11:20.203Z,9.32
2023-03-17T16:13:47.723Z,7.03
2023-03-17T16:16:21.460Z,7.78
2023-03-17T16:18:50.285Z,7.47
2023-03-17T16:21:17.721Z,7.90
2023-03-17T16:23:44.859Z,7.03
2023-03-17T16:26:16.046Z,6.97
2023-03-17T16:28:45.356Z,12.77
2023-03-17T16:31:18.311Z,10.38
2023-03-17T16:33:45.776Z,7.97
2023-03-17T16:36:17.215Z,8.60
2023-03-17T16:38:44.832Z,6.75
2023-03-17T16:41:19.322Z,8.40
2023-03-17T16:43:50.854Z,8.65
2023-03-17T16:46:18.384Z,9.07
2023-03-17T16:48:45.546Z,8.55
2023-03-17T16:51:12.734Z,8.27
2023-03-17T16:53:39.823Z,11.40
2023-03-17T16:56:11.442Z,7.68
2023-03-17T16:58:39.461Z,11.18
2023-03-17T17:01:16.992Z,9.98
2023-03-17T17:03:44.437Z,9.60
2023-03-17T17:06:14.066Z,10.57
2023-03-17T17:08:42.031Z,8.07
2023-03-17T17:11:09.304Z,11.52
2023-03-17T17:13:37.425Z,9.00
2023-03-17T17:16:04.628Z,10.63
2023-03-17T17:18:31.750Z,8.15
2023-03-17T17:20:58.921Z,7.70
2023-03-17T17:23:26.890Z,11.50
2023-03-17T17:25:55.379Z,6.93
2023-03-17T17:28:23.893Z,7.70
2023-03-17T17:30:51.903Z,8.50
2023-03-17T17:33:19.642Z,11.75
2023-03-17T17:35:47.795Z,9.32
2023-03-17T17:38:19.557Z,11.35
2023-03-17T17:40:47.031Z,12.88
2023-03-17T17:43:14.305Z,14.80
2023-03-17T17:45:42.263Z,19.52
2023-03-17T17:48:10.959Z,13.27
2023-03-17T17:50:38.121Z,11.90
2023-03-17T17:53:08.581Z,12.10
2023-03-17T17:55:35.782Z,15.15
2023-03-17T17:58:02.973Z,11.45
2023-03-17T18:00:30.715Z,14.38
2023-03-17T18:02:58.231Z,13.93
2023-03-17T18:05:25.432Z,13.50
2023-03-17T18:07:52.586Z,13.85
2023-03-17T18:10:22.451Z,12.07
2023-03-17T18:12:49.634Z,14.85
2023-03-17T18:15:16.863Z,13.90
2023-03-17T18:17:44.163Z,12.27
2023-03-17T18:20:13.001Z,14.98
2023-03-17T18:22:40.806Z,13.38
2023-03-17T18:25:09.862Z,16.05
2023-03-17T18:27:38.472Z,17.30
2023-03-17T18:30:10.449Z,15.65
2023-03-17T18:32:38.050Z,16.90
2023-03-17T18:35:06.884Z,17.25
2023-03-17T18:37:34.463Z,15.38
2023-03-17T18:40:16.419Z,13.95
2023-03-17T18:42:45.823Z,15.23
2023-03-17T18:45:13.526Z,14.45
2023-03-17T18:47:41.911Z,17.50
2023-03-17T18:50:11.040Z,22.88
2023-03-17T18:52:39.391Z,21.55
2023-03-17T18:55:07.431Z,22.40
2023-03-17T18:57:34.642Z,25.60
2023-03-17T19:00:01.878Z,21.48
2023-03-17T19:02:29.252Z,17.50
2023-03-17T19:04:56.901Z,15.88
2023-03-17T19:07:24.145Z,15.07
2023-03-17T19:09:51.417Z,16.13
2023-03-17T19:12:18.771Z,15.05
2023-03-17T19:14:46.093Z,19.45
2023-03-17T19:17:13.302Z,14.80
2023-03-17T19:19:41.366Z,14.18
2023-03-17T19:22:09.570Z,16.83
2023-03-17T19:24:37.556Z,14.55
2023-03-17T19:27:05.048Z,15.02
2023-03-17T19:29:33.239Z,14.25
2023-03-17T19:32:00.837Z,15.98
2023-03-17T19:34:28.042Z,16.00
2023-03-17T19:36:55.530Z,17.30
2023-03-17T19:39:22.959Z,15.98
2023-03-17T19:41:53.202Z,15.10
2023-03-17T19:44:21.168Z,14.95
2023-03-17T19:46:48.302Z,13.57
2023-03-17T19:49:15.750Z,15.45
2023-03-17T19:51:43.350Z,15.10
2023-03-17T19:54:11.113Z,14.90
2023-03-17T19:56:38.794Z,15.10
2023-03-17T19:59:06.733Z,16.45
2023-03-17T20:01:33.907Z,17.48
2023-03-17T20:04:01.402Z,18.83
2023-03-17T20:06:29.408Z,16.90
2023-03-17T20:08:56.576Z,18.92
2023-03-17T20:11:23.844Z,17.73
2023-03-17T20:13:51.019Z,15.27
2023-03-17T20:16:18.804Z,18.88
2023-03-17T20:18:46.038Z,26.27
2023-03-17T20:21:13.571Z,20.08
2023-03-17T20:23:40.876Z,17.02
2023-03-17T20:26:09.152Z,18.23
2023-03-17T20:28:36.888Z,18.63
2023-03-17T20:31:04.710Z,16.15
2023-03-17T20:33:33.347Z,19.23
2023-03-17T20:36:01.785Z,18.17
2023-03-17T20:38:29.222Z,17.33
2023-03-17T20:41:05.696Z,14.55
2023-03-17T20:43:35.782Z,16.65
2023-03-17T20:46:05.628Z,23.27
2023-03-17T20:48:33.059Z,17.05
2023-03-17T20:51:00.359Z,17.13
2023-03-17T20:53:28.121Z,16.92
2023-03-17T20:55:55.375Z,15.27
2023-03-17T20:58:22.710Z,15.85
2023-03-17T21:00:51.056Z,14.82
2023-03-17T21:03:18.249Z,15.55
2023-03-17T21:05:45.736Z,14.77
2023-03-17T21:08:13.095Z,12.85
2023-03-17T21:10:40.193Z,16.27
2023-03-17T21:13:07.272Z,17.05
2023-03-17T21:15:34.393Z,15.73
2023-03-17T21:18:01.828Z,13.45
2023-03-17T21:20:29.313Z,20.17
2023-03-17T21:22:56.633Z,15.13
2023-03-17T21:25:23.829Z,12.77
2023-03-17T21:27:52.129Z,14.20
2023-03-17T21:30:19.353Z,16.15
2023-03-17T21:32:46.542Z,15.32
2023-03-17T21:35:14.478Z,16.13
2023-03-17T21:41:51.308Z,15.95
